Taiseimaru — JL6483 — position and weather

sailwx.info

Track history (hours):
 
Tides and Currents Weather Stations Pressure Air Temp Water Temp Dewpoint Dewpoint Depression Visibility Wind Speed Wind Dir Waves Ship Positions

Taiseimaru

Last reported at 2016-Feb-06 22:13 UTC. Time now 2016-Feb-06 23:26 UTC.
Position N 34°40' E 134°45'.

Length 84 m; draft 4.7 m.

Type: Cargo ship. MMSI: 431500568.

Date/timePositionNaut miles runAvg speedWind from/ knotsBaromVisibWave heightAir tempDewpointWater temp
2016-Feb-06 22:13N 34°40' E 134°45'0 0.0
2016-Feb-06 21:31N 34°40' E 134°45'0 0.0
2016-Feb-06 20:31N 34°40' E 134°45'0 0.0
2016-Feb-06 19:31N 34°40' E 134°45'0 0.0
2016-Feb-06 18:31N 34°40' E 134°45'0 0.0
2016-Feb-06 17:31N 34°40' E 134°45'0 0.0
2016-Feb-06 16:31N 34°40' E 134°45'0 0.0
2016-Feb-06 15:25N 34°40' E 134°45'0 0.1
2016-Feb-06 14:31N 34°40' E 134°45'0 0.1
2016-Feb-06 13:31N 34°40' E 134°45'0 0.1
2016-Feb-06 12:31N 34°40' E 134°45'0 0.0
2016-Feb-06 11:31N 34°40' E 134°45'0 0.0
2016-Feb-06 10:25N 34°40' E 134°45'0 0.0
2016-Feb-06 09:25N 34°40' E 134°45'0 0.0
2016-Feb-06 08:31N 34°40' E 134°45'0 0.0
2016-Feb-06 04:07N 34°40' E 134°45'0 0.0
2016-Feb-06 03:31N 34°40' E 134°45'0 0.0
2016-Feb-06 02:25N 34°40' E 134°45'0 0.0
2016-Feb-06 01:25N 34°40' E 134°45'0 0.0
2016-Feb-06 00:25N 34°40' E 134°45'0 0.0
2016-Feb-05 21:31N 34°40' E 134°45'0 0.0
2016-Feb-05 20:31N 34°40' E 134°45'0 0.0
2016-Feb-05 19:25N 34°40' E 134°45'0 0.0
2016-Feb-05 18:31N 34°40' E 134°45'0 0.0
2016-Feb-05 17:30N 34°40' E 134°45'0 0.0
2016-Feb-05 16:30N 34°40' E 134°45'0 0.0
2016-Feb-05 15:30N 34°40' E 134°45'0 0.0
2016-Feb-05 14:30N 34°40' E 134°45'0 0.0
2016-Feb-05 13:30N 34°40' E 134°45'0 0.0
2016-Feb-05 12:30N 34°40' E 134°45'0 0.0
2016-Feb-05 09:24N 34°40' E 134°45'0 0.0
2016-Feb-05 06:24N 34°40' E 134°45'0 0.0
2016-Feb-05 05:30N 34°40' E 134°45'0 0.0
2016-Feb-05 04:18N 34°40' E 134°45'0 0.0
2016-Feb-05 03:30N 34°40' E 134°45'0 0.0
2016-Feb-05 01:24N 34°40' E 134°45'0 0.1
2016-Feb-05 00:30N 34°40' E 134°45'0 0.1
2016-Feb-04 23:30N 34°40' E 134°45'0 0.0
2016-Feb-04 22:24N 34°40' E 134°45'0 0.0
2016-Feb-04 21:30N 34°40' E 134°45'0 0.0
2016-Feb-04 20:24N 34°40' E 134°45'0 0.0
2016-Feb-04 19:18N 34°40' E 134°45'0 0.0
2016-Feb-04 18:24N 34°40' E 134°45'0 0.0
2016-Feb-04 17:30N 34°40' E 134°45'0 0.1
2016-Feb-04 16:25N 34°41' E 134°45'4 0.4
2016-Feb-04 06:21N 34°41' E 134°49'3 1.6
2016-Feb-04 04:32N 34°41' E 134°46'0 0.0
2016-Feb-04 01:26N 34°41' E 134°46'0 0.0
2016-Feb-04 00:26N 34°41' E 134°46'0 0.1
2016-Feb-03 23:25N 34°41' E 134°46'3 2.5
2016-Feb-03 22:03N 34°41' E 134°50'4 7.3
2016-Feb-03 21:33N 34°38' E 134°52'1211.8
2016-Feb-03 20:33N 34°34' E 135°05'1312.1
2016-Feb-03 19:31N 34°22' E 135°01'1212.2
2016-Feb-03 18:33N 34°10' E 134°60'180 9.0
2016-Feb-02 22:24N 34°33' E 138°36'5411.0
2016-Feb-02 17:31N 35°03' E 139°31'1111.6
2016-Feb-02 16:33N 35°08' E 139°43'1010.3
2016-Feb-02 15:33N 35°19' E 139°43'1010.0
2016-Feb-02 14:33N 35°28' E 139°49'9 9.3
2016-Feb-02 13:33N 35°28' E 140°00'0 0.0
2016-Feb-02 12:22N 35°28' E 140°00'0 0.0
2016-Feb-02 11:28N 35°28' E 140°00'0 0.0
2016-Feb-02 10:28N 35°28' E 140°00'0 0.0
2016-Feb-02 09:33N 35°28' E 140°00'4 4.0
2016-Feb-02 08:33N 35°32' E 139°59'9 7.3
2016-Feb-02 07:23N 35°41' E 139°59'0 0.0
2016-Feb-02 06:23N 35°41' E 139°59'0 0.0
2016-Feb-02 05:29N 35°41' E 139°59'0 0.0
2016-Feb-02 04:29N 35°41' E 139°59'0 0.0
2016-Feb-02 03:29N 35°41' E 139°59'0 0.0
2016-Feb-02 02:29N 35°41' E 139°59'0 0.0
2016-Feb-02 01:29N 35°41' E 139°59'0 0.0
2016-Feb-02 00:29N 35°41' E 139°59'0 0.0
2016-Feb-01 23:23N 35°41' E 139°59'0 0.0
2016-Feb-01 22:29N 35°41' E 139°59'0 0.0
2016-Feb-01 21:29N 35°41' E 139°59'0 0.0
2016-Feb-01 20:29N 35°41' E 139°59'0 0.0
2016-Feb-01 19:29N 35°41' E 139°59'0 0.0
2016-Feb-01 18:16N 35°41' E 139°59'0 0.0
2016-Feb-01 17:28N 35°41' E 139°59'0 0.0
2016-Feb-01 16:28N 35°41' E 139°59'0 0.0
2016-Feb-01 15:28N 35°41' E 139°59'0 0.0
2016-Feb-01 14:28N 35°41' E 139°59'0 0.0
2016-Feb-01 13:28N 35°41' E 139°59'0 0.0
2016-Feb-01 12:28N 35°41' E 139°59'0 0.0
2016-Feb-01 11:28N 35°41' E 139°59'0 0.0
2016-Feb-01 10:28N 35°41' E 139°59'0 0.0
2016-Feb-01 09:28N 35°41' E 139°59'0 0.0
2016-Feb-01 08:28N 35°41' E 139°59'0 0.0
2016-Feb-01 07:28N 35°41' E 139°59'0 0.0
2016-Feb-01 06:28N 35°41' E 139°59'0 0.0
2016-Feb-01 05:28N 35°41' E 139°59'0 0.0
2016-Feb-01 04:28N 35°41' E 139°59'0 0.0
2016-Feb-01 03:28N 35°41' E 139°59'0 0.0
2016-Feb-01 02:28N 35°41' E 139°59'0 0.0
2016-Feb-01 01:22N 35°41' E 139°59'0 0.0
2016-Feb-01 00:28N 35°41' E 139°59'0 0.0
2016-Jan-31 23:28N 35°41' E 139°59'0 0.0
2016-Jan-31 22:16N 35°41' E 139°59'0 0.0
2016-Jan-31 21:22N 35°41' E 139°59'0 0.0
2016-Jan-31 20:28N 35°41' E 139°59'0 0.0
2016-Jan-31 19:28N 35°41' E 139°59'0 0.0
2016-Jan-31 18:28N 35°41' E 139°59'0 0.0
2016-Jan-31 17:28N 35°41' E 139°59'0 0.0
2016-Jan-31 16:28N 35°41' E 139°59'0 0.0
2016-Jan-31 15:28N 35°41' E 139°59'0 0.0
2016-Jan-31 14:28N 35°41' E 139°59'0 0.0
2016-Jan-31 13:22N 35°41' E 139°59'0 0.0
2016-Jan-31 12:28N 35°41' E 139°59'0 0.0
2016-Jan-31 11:28N 35°41' E 139°59'0 0.0
2016-Jan-31 10:34N 35°41' E 139°59'0 0.0
2016-Jan-31 09:34N 35°41' E 139°59'0 0.0
2016-Jan-31 08:21N 35°41' E 139°59'0 0.0
2016-Jan-31 07:33N 35°41' E 139°59'0 0.0
2016-Jan-31 06:33N 35°41' E 139°59'0 0.0
2016-Jan-31 05:33N 35°41' E 139°59'0 0.0
2016-Jan-31 04:33N 35°41' E 139°59'0 0.0
2016-Jan-31 03:33N 35°41' E 139°59'0 0.0
2016-Jan-31 02:27N 35°41' E 139°59'0 0.0
2016-Jan-31 01:33N 35°41' E 139°59'0 0.0
2016-Jan-31 00:33N 35°41' E 139°59'0 0.0
2016-Jan-30 23:33N 35°41' E 139°59'0 0.0
2016-Jan-30 22:33N 35°41' E 139°59'0 0.0
2016-Jan-30 21:33N 35°41' E 139°59'0 0.0
2016-Jan-30 20:33N 35°41' E 139°59'0 0.0
2016-Jan-30 19:33N 35°41' E 139°59'0 0.0
2016-Jan-30 18:33N 35°41' E 139°59'0 0.0
2016-Jan-30 17:33N 35°41' E 139°59'0 0.0
2016-Jan-30 16:33N 35°41' E 139°59'0 0.0
2016-Jan-30 15:27N 35°41' E 139°59'0 0.0
2016-Jan-30 14:33N 35°41' E 139°59'0 0.0
2016-Jan-30 13:27N 35°41' E 139°59'0 0.0
2016-Jan-30 12:33N 35°41' E 139°59'0 0.0
2016-Jan-30 11:33N 35°41' E 139°59'0 0.0
2016-Jan-30 10:33N 35°41' E 139°59'0 0.0
2016-Jan-30 09:33N 35°41' E 139°59'0 0.0
2016-Jan-30 08:33N 35°41' E 139°59'0 0.0
2016-Jan-30 07:33N 35°41' E 139°59'0 0.0
2016-Jan-30 06:27N 35°41' E 139°59'0 0.0
2016-Jan-30 05:33N 35°41' E 139°59'0 0.0
2016-Jan-30 04:27N 35°41' E 139°59'0 0.0
2016-Jan-30 03:33N 35°41' E 139°59'0 0.0
2016-Jan-30 02:33N 35°41' E 139°59'0 0.0
2016-Jan-30 01:33N 35°41' E 139°59'0 0.0
2016-Jan-30 00:33N 35°41' E 139°59'0 0.0
2016-Jan-29 23:32N 35°41' E 139°59'0 0.0
2016-Jan-29 22:32N 35°41' E 139°59'0 0.0
2016-Jan-29 21:26N 35°41' E 139°59'0 0.0
2016-Jan-29 20:32N 35°41' E 139°59'0 0.0
2016-Jan-29 19:32N 35°41' E 139°59'0 0.0
2016-Jan-29 18:32N 35°41' E 139°59'0 0.0
2016-Jan-29 17:26N 35°41' E 139°59'0 0.0
2016-Jan-29 16:32N 35°41' E 139°59'0 0.0
2016-Jan-29 15:20N 35°41' E 139°59'0 0.0
2016-Jan-29 14:26N 35°41' E 139°59'0 0.0
2016-Jan-29 13:32N 35°41' E 139°59'0 0.0
2016-Jan-29 12:32N 35°41' E 139°59'0 0.0
2016-Jan-29 11:32N 35°41' E 139°59'0 0.0
2016-Jan-29 10:26N 35°41' E 139°59'0 0.0
2016-Jan-29 09:32N 35°41' E 139°59'0 0.0
2016-Jan-29 08:26N 35°41' E 139°59'0 0.0
2016-Jan-29 07:32N 35°41' E 139°59'0 0.0
2016-Jan-29 06:26N 35°41' E 139°59'0 0.0
2016-Jan-29 05:32N 35°41' E 139°59'4 4.3
2016-Jan-29 04:33N 35°37' E 139°57'9 9.1
2016-Jan-29 03:33N 35°29' E 139°52'10 9.7
2016-Jan-29 02:34N 35°21' E 139°45'9 9.2
2016-Jan-29 01:33N 35°12' E 139°47'6710.5
2016-Jan-28 19:13N 34°34' E 138°40'  
Track history (hours):
 
Tides and Currents Weather Stations Pressure Air Temp Water Temp Dewpoint Dewpoint Depression Visibility Wind Speed Wind Dir Waves Ship Positions

Taiseimaru

Last reported at 2016-Feb-06 22:13 UTC. Time now 2016-Feb-06 23:26 UTC.
Position N 34°40' E 134°45'.

Length 84 m; draft 4.7 m.

Type: Cargo ship. MMSI: 431500568.

Date/timePositionNaut miles runAvg speedWind from/ knotsBaromVisibWave heightAir tempDewpointWater temp
2016-Feb-06 22:13N 34°40' E 134°45'0 0.0
2016-Feb-06 21:31N 34°40' E 134°45'0 0.0
2016-Feb-06 20:31N 34°40' E 134°45'0 0.0
2016-Feb-06 19:31N 34°40' E 134°45'0 0.0
2016-Feb-06 18:31N 34°40' E 134°45'0 0.0
2016-Feb-06 17:31N 34°40' E 134°45'0 0.0
2016-Feb-06 16:31N 34°40' E 134°45'0 0.0
2016-Feb-06 15:25N 34°40' E 134°45'0 0.1
2016-Feb-06 14:31N 34°40' E 134°45'0 0.1
2016-Feb-06 13:31N 34°40' E 134°45'0 0.1
2016-Feb-06 12:31N 34°40' E 134°45'0 0.0
2016-Feb-06 11:31N 34°40' E 134°45'0 0.0
2016-Feb-06 10:25N 34°40' E 134°45'0 0.0
2016-Feb-06 09:25N 34°40' E 134°45'0 0.0
2016-Feb-06 08:31N 34°40' E 134°45'0 0.0
2016-Feb-06 04:07N 34°40' E 134°45'0 0.0
2016-Feb-06 03:31N 34°40' E 134°45'0 0.0
2016-Feb-06 02:25N 34°40' E 134°45'0 0.0
2016-Feb-06 01:25N 34°40' E 134°45'0 0.0
2016-Feb-06 00:25N 34°40' E 134°45'0 0.0
2016-Feb-05 21:31N 34°40' E 134°45'0 0.0
2016-Feb-05 20:31N 34°40' E 134°45'0 0.0
2016-Feb-05 19:25N 34°40' E 134°45'0 0.0
2016-Feb-05 18:31N 34°40' E 134°45'0 0.0
2016-Feb-05 17:30N 34°40' E 134°45'0 0.0
2016-Feb-05 16:30N 34°40' E 134°45'0 0.0
2016-Feb-05 15:30N 34°40' E 134°45'0 0.0
2016-Feb-05 14:30N 34°40' E 134°45'0 0.0
2016-Feb-05 13:30N 34°40' E 134°45'0 0.0
2016-Feb-05 12:30N 34°40' E 134°45'0 0.0
2016-Feb-05 09:24N 34°40' E 134°45'0 0.0
2016-Feb-05 06:24N 34°40' E 134°45'0 0.0
2016-Feb-05 05:30N 34°40' E 134°45'0 0.0
2016-Feb-05 04:18N 34°40' E 134°45'0 0.0
2016-Feb-05 03:30N 34°40' E 134°45'0 0.0
2016-Feb-05 01:24N 34°40' E 134°45'0 0.1
2016-Feb-05 00:30N 34°40' E 134°45'0 0.1
2016-Feb-04 23:30N 34°40' E 134°45'0 0.0
2016-Feb-04 22:24N 34°40' E 134°45'0 0.0
2016-Feb-04 21:30N 34°40' E 134°45'0 0.0
2016-Feb-04 20:24N 34°40' E 134°45'0 0.0
2016-Feb-04 19:18N 34°40' E 134°45'0 0.0
2016-Feb-04 18:24N 34°40' E 134°45'0 0.0
2016-Feb-04 17:30N 34°40' E 134°45'0 0.1
2016-Feb-04 16:25N 34°41' E 134°45'4 0.4
2016-Feb-04 06:21N 34°41' E 134°49'3 1.6
2016-Feb-04 04:32N 34°41' E 134°46'0 0.0
2016-Feb-04 01:26N 34°41' E 134°46'0 0.0
2016-Feb-04 00:26N 34°41' E 134°46'0 0.1
2016-Feb-03 23:25N 34°41' E 134°46'3 2.5
2016-Feb-03 22:03N 34°41' E 134°50'4 7.3
2016-Feb-03 21:33N 34°38' E 134°52'1211.8
2016-Feb-03 20:33N 34°34' E 135°05'1312.1
2016-Feb-03 19:31N 34°22' E 135°01'1212.2
2016-Feb-03 18:33N 34°10' E 134°60'180 9.0
2016-Feb-02 22:24N 34°33' E 138°36'5411.0
2016-Feb-02 17:31N 35°03' E 139°31'1111.6
2016-Feb-02 16:33N 35°08' E 139°43'1010.3
2016-Feb-02 15:33N 35°19' E 139°43'1010.0
2016-Feb-02 14:33N 35°28' E 139°49'9 9.3
2016-Feb-02 13:33N 35°28' E 140°00'0 0.0
2016-Feb-02 12:22N 35°28' E 140°00'0 0.0
2016-Feb-02 11:28N 35°28' E 140°00'0 0.0
2016-Feb-02 10:28N 35°28' E 140°00'0 0.0
2016-Feb-02 09:33N 35°28' E 140°00'4 4.0
2016-Feb-02 08:33N 35°32' E 139°59'9 7.3
2016-Feb-02 07:23N 35°41' E 139°59'0 0.0
2016-Feb-02 06:23N 35°41' E 139°59'0 0.0
2016-Feb-02 05:29N 35°41' E 139°59'0 0.0
2016-Feb-02 04:29N 35°41' E 139°59'0 0.0
2016-Feb-02 03:29N 35°41' E 139°59'0 0.0
2016-Feb-02 02:29N 35°41' E 139°59'0 0.0
2016-Feb-02 01:29N 35°41' E 139°59'0 0.0
2016-Feb-02 00:29N 35°41' E 139°59'0 0.0
2016-Feb-01 23:23N 35°41' E 139°59'0 0.0
2016-Feb-01 22:29N 35°41' E 139°59'0 0.0
2016-Feb-01 21:29N 35°41' E 139°59'0 0.0
2016-Feb-01 20:29N 35°41' E 139°59'0 0.0
2016-Feb-01 19:29N 35°41' E 139°59'0 0.0
2016-Feb-01 18:16N 35°41' E 139°59'0 0.0
2016-Feb-01 17:28N 35°41' E 139°59'0 0.0
2016-Feb-01 16:28N 35°41' E 139°59'0 0.0
2016-Feb-01 15:28N 35°41' E 139°59'0 0.0
2016-Feb-01 14:28N 35°41' E 139°59'0 0.0
2016-Feb-01 13:28N 35°41' E 139°59'0 0.0
2016-Feb-01 12:28N 35°41' E 139°59'0 0.0
2016-Feb-01 11:28N 35°41' E 139°59'0 0.0
2016-Feb-01 10:28N 35°41' E 139°59'0 0.0
2016-Feb-01 09:28N 35°41' E 139°59'0 0.0
2016-Feb-01 08:28N 35°41' E 139°59'0 0.0
2016-Feb-01 07:28N 35°41' E 139°59'0 0.0
2016-Feb-01 06:28N 35°41' E 139°59'0 0.0
2016-Feb-01 05:28N 35°41' E 139°59'0 0.0
2016-Feb-01 04:28N 35°41' E 139°59'0 0.0
2016-Feb-01 03:28N 35°41' E 139°59'0 0.0
2016-Feb-01 02:28N 35°41' E 139°59'0 0.0
2016-Feb-01 01:22N 35°41' E 139°59'0 0.0
2016-Feb-01 00:28N 35°41' E 139°59'0 0.0
2016-Jan-31 23:28N 35°41' E 139°59'0 0.0
2016-Jan-31 22:16N 35°41' E 139°59'0 0.0
2016-Jan-31 21:22N 35°41' E 139°59'0 0.0
2016-Jan-31 20:28N 35°41' E 139°59'0 0.0
2016-Jan-31 19:28N 35°41' E 139°59'0 0.0
2016-Jan-31 18:28N 35°41' E 139°59'0 0.0
2016-Jan-31 17:28N 35°41' E 139°59'0 0.0
2016-Jan-31 16:28N 35°41' E 139°59'0 0.0
2016-Jan-31 15:28N 35°41' E 139°59'0 0.0
2016-Jan-31 14:28N 35°41' E 139°59'0 0.0
2016-Jan-31 13:22N 35°41' E 139°59'0 0.0
2016-Jan-31 12:28N 35°41' E 139°59'0 0.0
2016-Jan-31 11:28N 35°41' E 139°59'0 0.0
2016-Jan-31 10:34N 35°41' E 139°59'0 0.0
2016-Jan-31 09:34N 35°41' E 139°59'0 0.0
2016-Jan-31 08:21N 35°41' E 139°59'0 0.0
2016-Jan-31 07:33N 35°41' E 139°59'0 0.0
2016-Jan-31 06:33N 35°41' E 139°59'0 0.0
2016-Jan-31 05:33N 35°41' E 139°59'0 0.0
2016-Jan-31 04:33N 35°41' E 139°59'0 0.0
2016-Jan-31 03:33N 35°41' E 139°59'0 0.0
2016-Jan-31 02:27N 35°41' E 139°59'0 0.0
2016-Jan-31 01:33N 35°41' E 139°59'0 0.0
2016-Jan-31 00:33N 35°41' E 139°59'0 0.0
2016-Jan-30 23:33N 35°41' E 139°59'0 0.0
2016-Jan-30 22:33N 35°41' E 139°59'0 0.0
2016-Jan-30 21:33N 35°41' E 139°59'0 0.0
2016-Jan-30 20:33N 35°41' E 139°59'0 0.0
2016-Jan-30 19:33N 35°41' E 139°59'0 0.0
2016-Jan-30 18:33N 35°41' E 139°59'0 0.0
2016-Jan-30 17:33N 35°41' E 139°59'0 0.0
2016-Jan-30 16:33N 35°41' E 139°59'0 0.0
2016-Jan-30 15:27N 35°41' E 139°59'0 0.0
2016-Jan-30 14:33N 35°41' E 139°59'0 0.0
2016-Jan-30 13:27N 35°41' E 139°59'0 0.0
2016-Jan-30 12:33N 35°41' E 139°59'0 0.0
2016-Jan-30 11:33N 35°41' E 139°59'0 0.0
2016-Jan-30 10:33N 35°41' E 139°59'0 0.0
2016-Jan-30 09:33N 35°41' E 139°59'0 0.0
2016-Jan-30 08:33N 35°41' E 139°59'0 0.0
2016-Jan-30 07:33N 35°41' E 139°59'0 0.0
2016-Jan-30 06:27N 35°41' E 139°59'0 0.0
2016-Jan-30 05:33N 35°41' E 139°59'0 0.0
2016-Jan-30 04:27N 35°41' E 139°59'0 0.0
2016-Jan-30 03:33N 35°41' E 139°59'0 0.0
2016-Jan-30 02:33N 35°41' E 139°59'0 0.0
2016-Jan-30 01:33N 35°41' E 139°59'0 0.0
2016-Jan-30 00:33N 35°41' E 139°59'0 0.0
2016-Jan-29 23:32N 35°41' E 139°59'0 0.0
2016-Jan-29 22:32N 35°41' E 139°59'0 0.0
2016-Jan-29 21:26N 35°41' E 139°59'0 0.0
2016-Jan-29 20:32N 35°41' E 139°59'0 0.0
2016-Jan-29 19:32N 35°41' E 139°59'0 0.0
2016-Jan-29 18:32N 35°41' E 139°59'0 0.0
2016-Jan-29 17:26N 35°41' E 139°59'0 0.0
2016-Jan-29 16:32N 35°41' E 139°59'0 0.0
2016-Jan-29 15:20N 35°41' E 139°59'0 0.0
2016-Jan-29 14:26N 35°41' E 139°59'0 0.0
2016-Jan-29 13:32N 35°41' E 139°59'0 0.0
2016-Jan-29 12:32N 35°41' E 139°59'0 0.0
2016-Jan-29 11:32N 35°41' E 139°59'0 0.0
2016-Jan-29 10:26N 35°41' E 139°59'0 0.0
2016-Jan-29 09:32N 35°41' E 139°59'0 0.0
2016-Jan-29 08:26N 35°41' E 139°59'0 0.0
2016-Jan-29 07:32N 35°41' E 139°59'0 0.0
2016-Jan-29 06:26N 35°41' E 139°59'0 0.0
2016-Jan-29 05:32N 35°41' E 139°59'4 4.3
2016-Jan-29 04:33N 35°37' E 139°57'9 9.1
2016-Jan-29 03:33N 35°29' E 139°52'10 9.7
2016-Jan-29 02:34N 35°21' E 139°45'9 9.2
2016-Jan-29 01:33N 35°12' E 139°47'6710.5
2016-Jan-28 19:13N 34°34' E 138°40'  

Dump ship's entire track history